Time;durP1;ratioP1;P1;durP2;ratioP2;P2;SDS_P1;SDS_P2;PMS_P1;PMS_P2;Temp;Humidity;BMP_temperature;BMP_pressure;BME280_temperature;BME280_humidity;BME280_pressure;Samples;Min_cycle;Max_cycle;Signal;HPM_P1;HPM_P2
2022/02/23 00:01:26;;;;;;;3.50;1.25;;;17.60;52.70;;;;;;5075459;28;20467;-56
2022/02/23 00:03:53;;;;;;;4.78;1.40;;;17.60;52.60;;;;;;5075525;28;20019;-55
2022/02/23 00:06:19;;;;;;;4.07;1.88;;;17.60;52.60;;;;;;5075130;28;20017;-53
2022/02/23 00:08:45;;;;;;;4.03;1.55;;;17.60;52.60;;;;;;5075113;28;20081;-54
2022/02/23 00:11:12;;;;;;;5.28;1.40;;;17.60;52.60;;;;;;5076144;28;20023;-54
2022/02/23 00:13:38;;;;;;;2.47;1.35;;;17.60;52.70;;;;;;5076161;28;20092;-56
2022/02/23 00:16:05;;;;;;;2.00;1.23;;;17.60;52.60;;;;;;5076016;28;20044;-55
2022/02/23 00:18:31;;;;;;;3.13;1.20;;;17.60;52.60;;;;;;5074959;28;20096;-56
2022/02/23 00:20:57;;;;;;;3.40;1.83;;;17.50;52.50;;;;;;5075047;28;20048;-56
2022/02/23 00:23:23;;;;;;;3.83;1.70;;;17.60;52.60;;;;;;5075366;28;20035;-55
2022/02/23 00:25:49;;;;;;;2.75;1.27;;;17.60;52.60;;;;;;5075271;28;20082;-54
2022/02/23 00:28:15;;;;;;;2.85;1.20;;;17.50;52.50;;;;;;5075141;28;20013;-54
2022/02/23 00:30:41;;;;;;;2.72;1.25;;;17.50;52.50;;;;;;5075436;28;20016;-54
2022/02/23 00:33:08;;;;;;;2.50;1.40;;;17.60;52.60;;;;;;5076149;28;20009;-54
2022/02/23 00:35:34;;;;;;;2.55;1.35;;;17.50;52.60;;;;;;5075212;28;20024;-54
2022/02/23 00:38:00;;;;;;;2.22;1.20;;;17.50;52.50;;;;;;5075176;28;20480;-55
2022/02/23 00:40:28;;;;;;;3.92;1.50;;;17.50;52.50;;;;;;5075101;28;20391;-57
2022/02/23 00:42:56;;;;;;;2.55;1.27;;;17.50;52.40;;;;;;5076369;28;20048;-55
2022/02/23 00:45:22;;;;;;;2.03;1.15;;;17.50;52.40;;;;;;5078399;28;20021;-57
2022/02/23 00:47:49;;;;;;;3.10;1.30;;;17.50;52.40;;;;;;5077957;28;20036;-57
2022/02/23 00:50:15;;;;;;;3.33;1.40;;;17.50;52.40;;;;;;5075665;28;20080;-57
2022/02/23 00:52:41;;;;;;;2.47;1.15;;;17.50;52.40;;;;;;5074453;28;20108;-56
2022/02/23 00:55:08;;;;;;;3.22;1.55;;;17.50;52.40;;;;;;5056670;28;20012;-55
2022/02/23 00:57:35;;;;;;;4.28;1.42;;;17.50;52.40;;;;;;5075099;28;20055;-55
2022/02/23 01:00:01;;;;;;;4.20;1.63;;;17.50;52.40;;;;;;5075392;28;20029;-56
2022/02/23 01:02:27;;;;;;;2.83;1.58;;;17.50;52.40;;;;;;5058305;28;20482;-57
2022/02/23 01:04:52;;;;;;;2.75;1.30;;;17.50;52.40;;;;;;5076110;28;20029;-57
2022/02/23 01:07:18;;;;;;;2.60;1.30;;;17.50;52.40;;;;;;5076195;28;20110;-57
2022/02/23 01:09:46;;;;;;;3.03;1.58;;;17.50;52.40;;;;;;5075657;28;20032;-55
2022/02/23 01:12:14;;;;;;;2.28;1.00;;;17.50;52.40;;;;;;5075488;28;20020;-56
2022/02/23 01:14:41;;;;;;;3.10;1.50;;;17.40;52.40;;;;;;5075399;28;20020;-53
2022/02/23 01:17:06;;;;;;;3.90;1.63;;;17.40;52.30;;;;;;5074606;28;20487;-55
2022/02/23 01:19:33;;;;;;;2.97;1.20;;;17.40;52.30;;;;;;5057669;28;20060;-55
2022/02/23 01:21:59;;;;;;;3.35;1.80;;;17.50;52.30;;;;;;5058300;28;20019;-57
2022/02/23 01:24:25;;;;;;;2.78;1.23;;;17.40;52.30;;;;;;5074101;28;20082;-56
2022/02/23 01:26:52;;;;;;;1.90;1.10;;;17.40;52.40;;;;;;5073835;28;20027;-53
2022/02/23 01:29:18;;;;;;;3.08;1.35;;;17.40;52.30;;;;;;5073458;28;20072;-54
2022/02/23 01:31:44;;;;;;;2.45;1.30;;;17.40;52.30;;;;;;5073779;28;20020;-56
2022/02/23 01:34:10;;;;;;;2.53;1.20;;;17.40;52.40;;;;;;5056825;28;20120;-55
2022/02/23 01:36:36;;;;;;;3.10;1.52;;;17.40;52.40;;;;;;5056483;28;20546;-56
2022/02/23 01:39:02;;;;;;;6.30;1.80;;;17.40;52.30;;;;;;5074048;28;20036;-56
2022/02/23 01:41:28;;;;;;;2.38;1.17;;;17.40;52.30;;;;;;5073420;28;20411;-55
2022/02/23 01:43:54;;;;;;;1.98;1.02;;;17.40;52.30;;;;;;5055759;28;20013;-53
2022/02/23 01:46:21;;;;;;;2.00;1.10;;;17.40;52.40;;;;;;5074864;28;20529;-55
2022/02/23 01:48:47;;;;;;;2.33;1.15;;;17.30;52.30;;;;;;5075241;28;20055;-55
2022/02/23 01:51:14;;;;;;;3.20;1.55;;;17.40;52.30;;;;;;5074007;28;20024;-54
2022/02/23 01:53:40;;;;;;;3.97;1.38;;;17.40;52.30;;;;;;5055731;28;20031;-54
2022/02/23 01:56:06;;;;;;;1.95;1.20;;;17.40;52.30;;;;;;5073332;28;20016;-55
2022/02/23 01:58:32;;;;;;;3.60;1.45;;;17.40;52.30;;;;;;5055129;28;20513;-56
2022/02/23 02:01:00;;;;;;;1.88;0.95;;;17.40;52.30;;;;;;5073464;28;20468;-56
2022/02/23 02:03:26;;;;;;;3.13;1.20;;;17.30;52.20;;;;;;5073581;28;20013;-54
2022/02/23 02:05:53;;;;;;;3.58;1.38;;;17.30;52.20;;;;;;5074413;28;20017;-55
2022/02/23 02:08:19;;;;;;;2.20;1.30;;;17.30;52.20;;;;;;5073395;28;20471;-55
2022/02/23 02:10:45;;;;;;;2.20;1.25;;;17.30;52.30;;;;;;5073376;28;20013;-55
2022/02/23 02:13:12;;;;;;;3.08;1.05;;;17.30;52.20;;;;;;5057503;28;20017;-52
2022/02/23 02:15:41;;;;;;;3.08;1.50;;;17.30;52.20;;;;;;5076313;28;20019;-54
2022/02/23 02:18:07;;;;;;;2.95;1.20;;;17.30;52.20;;;;;;5076377;28;20141;-54
2022/02/23 02:20:33;;;;;;;2.35;1.13;;;17.30;52.20;;;;;;5055525;28;20027;-55
2022/02/23 02:22:59;;;;;;;2.40;1.08;;;17.30;52.10;;;;;;5077138;28;20016;-56
2022/02/23 02:25:26;;;;;;;2.90;1.33;;;17.30;52.10;;;;;;5076145;28;20092;-54
2022/02/23 02:27:53;;;;;;;2.30;1.10;;;17.30;52.10;;;;;;5073706;28;20075;-54
2022/02/23 02:30:20;;;;;;;2.03;1.00;;;17.30;52.20;;;;;;5075806;28;20020;-54
2022/02/23 02:32:48;;;;;;;4.82;1.40;;;17.30;52.20;;;;;;5077227;28;20023;-54
2022/02/23 02:35:17;;;;;;;2.72;1.10;;;17.30;52.20;;;;;;5077414;28;20115;-55
2022/02/23 02:37:43;;;;;;;2.63;1.20;;;17.30;52.20;;;;;;5077465;28;20017;-55
2022/02/23 02:40:09;;;;;;;1.73;0.95;;;17.30;52.10;;;;;;5076754;28;20082;-53
2022/02/23 02:42:35;;;;;;;2.72;1.30;;;17.30;52.10;;;;;;5058875;28;20033;-54
2022/02/23 02:45:01;;;;;;;2.83;1.35;;;17.30;52.10;;;;;;5059589;28;20032;-54
2022/02/23 02:47:27;;;;;;;2.22;1.00;;;17.30;52.00;;;;;;5077296;28;20017;-53
2022/02/23 02:49:53;;;;;;;2.65;1.30;;;17.30;52.00;;;;;;5077232;28;20095;-53
2022/02/23 02:52:19;;;;;;;2.08;1.13;;;17.30;52.10;;;;;;5076894;28;20503;-53
2022/02/23 02:54:46;;;;;;;2.40;1.02;;;17.30;52.10;;;;;;5077002;28;20020;-54
2022/02/23 02:57:12;;;;;;;3.33;1.25;;;17.20;52.10;;;;;;5076985;28;20025;-54
2022/02/23 02:59:40;;;;;;;1.80;0.90;;;17.20;52.10;;;;;;5076712;28;20036;-54
2022/02/23 03:02:06;;;;;;;6.80;1.65;;;17.20;52.00;;;;;;5076835;28;20017;-55
2022/02/23 03:04:33;;;;;;;3.58;1.40;;;17.20;52.00;;;;;;5077148;28;20048;-53
2022/02/23 03:06:59;;;;;;;2.17;1.27;;;17.20;52.00;;;;;;5077241;28;20024;-53
2022/02/23 03:09:25;;;;;;;1.48;0.80;;;17.20;52.00;;;;;;5059851;28;20027;-55
2022/02/23 03:11:51;;;;;;;2.13;1.00;;;17.20;52.00;;;;;;5059799;28;20032;-54
2022/02/23 03:14:17;;;;;;;3.72;1.27;;;17.20;52.00;;;;;;5078613;28;20024;-53
2022/02/23 03:16:43;;;;;;;2.55;1.10;;;17.20;52.10;;;;;;5077362;28;20039;-55
2022/02/23 03:19:10;;;;;;;3.60;1.20;;;17.20;52.00;;;;;;5080222;28;20258;-57
2022/02/23 03:21:36;;;;;;;2.65;1.30;;;17.20;52.00;;;;;;5078850;28;20062;-57
2022/02/23 03:24:02;;;;;;;2.78;1.35;;;17.20;52.00;;;;;;5044280;28;20025;-57
2022/02/23 03:26:28;;;;;;;2.20;1.27;;;17.20;52.00;;;;;;5058761;28;20498;-55
2022/02/23 03:28:54;;;;;;;2.15;1.23;;;17.20;52.00;;;;;;5075805;28;20086;-55
2022/02/23 03:31:20;;;;;;;2.65;1.02;;;17.20;52.00;;;;;;5075807;28;20032;-55
2022/02/23 03:33:47;;;;;;;2.10;1.05;;;17.20;52.00;;;;;;5057823;28;20037;-55
2022/02/23 03:36:13;;;;;;;2.67;1.20;;;17.20;52.00;;;;;;5075857;28;20108;-55
2022/02/23 03:38:39;;;;;;;1.73;0.98;;;17.10;52.00;;;;;;5075565;28;20479;-54
2022/02/23 03:41:06;;;;;;;2.55;1.17;;;17.10;52.00;;;;;;5074927;28;20044;-55
2022/02/23 03:43:32;;;;;;;2.95;1.38;;;17.10;52.00;;;;;;5075627;28;20020;-53
2022/02/23 03:45:58;;;;;;;1.63;0.93;;;17.20;51.90;;;;;;5075531;28;20031;-55
2022/02/23 03:48:25;;;;;;;2.03;1.10;;;17.10;51.90;;;;;;5075456;28;20074;-52
2022/02/23 03:50:51;;;;;;;2.53;1.13;;;17.10;52.00;;;;;;5075147;28;20475;-55
2022/02/23 03:53:17;;;;;;;2.78;1.30;;;17.10;51.90;;;;;;5057165;28;20017;-54
2022/02/23 03:55:44;;;;;;;2.97;1.48;;;17.10;51.90;;;;;;5057485;28;20016;-55
2022/02/23 03:58:10;;;;;;;2.30;1.20;;;17.10;52.00;;;;;;5075335;28;20483;-51
2022/02/23 04:00:37;;;;;;;2.28;1.20;;;17.10;51.90;;;;;;5075449;28;20047;-52
2022/02/23 04:03:03;;;;;;;1.90;0.88;;;17.10;51.90;;;;;;5075255;28;20013;-55
2022/02/23 04:05:29;;;;;;;2.15;1.23;;;17.10;51.90;;;;;;5075204;28;20043;-55
2022/02/23 04:07:55;;;;;;;1.73;1.05;;;17.10;52.00;;;;;;5075598;28;20020;-56
2022/02/23 04:10:23;;;;;;;2.63;1.20;;;17.10;52.00;;;;;;5075678;28;20066;-54
2022/02/23 04:12:49;;;;;;;2.22;1.05;;;17.10;51.90;;;;;;5074716;28;20471;-55
2022/02/23 04:15:15;;;;;;;2.08;1.08;;;17.10;51.90;;;;;;5074715;28;20054;-56
2022/02/23 04:17:41;;;;;;;1.67;1.10;;;17.10;51.90;;;;;;5057294;28;20017;-56
2022/02/23 04:20:07;;;;;;;1.98;0.95;;;17.10;51.90;;;;;;5074930;28;20017;-56
2022/02/23 04:22:34;;;;;;;2.15;1.23;;;17.10;51.90;;;;;;5075380;28;20013;-57
2022/02/23 04:25:00;;;;;;;2.58;1.30;;;17.10;52.50;;;;;;5057023;28;20012;-55
2022/02/23 04:27:26;;;;;;;2.28;1.10;;;17.10;51.90;;;;;;5075075;28;20096;-56
2022/02/23 04:29:52;;;;;;;4.22;1.30;;;17.10;51.90;;;;;;5074694;28;20023;-56
2022/02/23 04:32:19;;;;;;;2.45;1.10;;;17.10;51.90;;;;;;5075108;28;20024;-57
2022/02/23 04:34:45;;;;;;;1.80;0.88;;;17.00;51.90;;;;;;5074651;28;20044;-54
2022/02/23 04:37:11;;;;;;;1.95;0.90;;;17.10;51.90;;;;;;5056809;28;20020;-54
2022/02/23 04:39:37;;;;;;;2.13;1.38;;;17.00;51.90;;;;;;5074546;28;20043;-55
2022/02/23 04:42:03;;;;;;;1.80;1.00;;;17.00;51.80;;;;;;5053672;28;20398;-55
2022/02/23 04:44:28;;;;;;;1.42;0.80;;;17.10;51.90;;;;;;5053120;28;20024;-56
2022/02/23 04:46:55;;;;;;;3.03;1.13;;;17.10;51.80;;;;;;5054659;28;20025;-55
2022/02/23 04:49:22;;;;;;;1.38;0.95;;;17.10;51.60;;;;;;5054233;28;20468;-54
2022/02/23 04:51:47;;;;;;;2.50;1.00;;;17.20;51.30;;;;;;5052390;28;20059;-56
2022/02/23 04:54:13;;;;;;;3.35;1.20;;;17.30;51.10;;;;;;5055328;28;20029;-56
2022/02/23 04:56:39;;;;;;;2.13;0.93;;;17.40;51.00;;;;;;5058229;28;20056;-54
2022/02/23 04:59:06;;;;;;;1.92;1.00;;;17.30;50.90;;;;;;5055314;28;20529;-54
2022/02/23 05:01:31;;;;;;;1.42;0.90;;;17.40;50.90;;;;;;5054043;28;20091;-54
2022/02/23 05:03:57;;;;;;;2.45;1.17;;;17.40;50.70;;;;;;5054147;28;20009;-54
2022/02/23 05:06:23;;;;;;;3.15;1.17;;;17.50;50.50;;;;;;5054254;28;20016;-54
2022/02/23 05:08:49;;;;;;;1.80;1.10;;;17.60;50.50;;;;;;5052487;28;20545;-56
2022/02/23 05:11:16;;;;;;;2.05;1.23;;;17.60;50.30;;;;;;5053610;28;20586;-53
2022/02/23 05:13:42;;;;;;;2.30;1.02;;;17.70;50.00;;;;;;5053912;28;20092;-55
2022/02/23 05:16:08;;;;;;;2.80;1.10;;;17.80;50.00;;;;;;5053807;28;20056;-53
2022/02/23 05:18:34;;;;;;;2.00;1.27;;;17.90;49.80;;;;;;5053710;28;20025;-54
2022/02/23 05:21:01;;;;;;;1.85;0.90;;;17.90;49.50;;;;;;5053938;28;20017;-56
2022/02/23 05:23:27;;;;;;;1.83;0.95;;;18.00;49.80;;;;;;5053443;28;20096;-56
2022/02/23 05:25:53;;;;;;;2.55;1.15;;;18.10;49.10;;;;;;5053340;28;20014;-57
2022/02/23 05:28:19;;;;;;;1.55;0.98;;;18.20;48.90;;;;;;5055036;28;20017;-51
2022/02/23 05:30:45;;;;;;;3.53;1.08;;;18.30;48.70;;;;;;5053586;28;20379;-50
2022/02/23 05:33:12;;;;;;;1.17;0.85;;;18.40;48.50;;;;;;5053400;28;20044;-53
2022/02/23 05:35:39;;;;;;;2.88;1.15;;;18.50;48.30;;;;;;5053798;28;20021;-54
2022/02/23 05:38:05;;;;;;;1.63;0.90;;;18.50;48.20;;;;;;5052527;28;20025;-55
2022/02/23 05:40:31;;;;;;;2.63;1.15;;;18.60;48.00;;;;;;5054012;28;20021;-55
2022/02/23 05:42:57;;;;;;;2.03;1.08;;;18.70;47.90;;;;;;5070638;28;20441;-56
2022/02/23 05:45:24;;;;;;;1.67;0.80;;;18.70;47.70;;;;;;5056633;28;20035;-55
2022/02/23 05:47:50;;;;;;;1.92;1.08;;;18.80;47.60;;;;;;5073790;28;20012;-57
2022/02/23 05:50:16;;;;;;;2.67;1.23;;;18.90;47.50;;;;;;5074760;28;20020;-54
2022/02/23 05:52:41;;;;;;;2.53;1.30;;;18.90;47.40;;;;;;5074846;28;20566;-55
2022/02/23 05:55:08;;;;;;;2.78;1.20;;;19.00;47.30;;;;;;5074450;28;20094;-53
2022/02/23 05:57:34;;;;;;;2.28;1.00;;;19.00;47.10;;;;;;5074998;28;20103;-54
2022/02/23 06:00:01;;;;;;;3.38;1.10;;;19.10;47.20;;;;;;5074635;28;20039;-54
2022/02/23 06:02:26;;;;;;;2.00;0.95;;;19.10;47.10;;;;;;5056897;28;20009;-57
2022/02/23 06:04:53;;;;;;;2.10;1.05;;;19.20;47.10;;;;;;5073761;28;20025;-56
2022/02/23 06:07:21;;;;;;;2.13;1.25;;;19.20;47.00;;;;;;5040087;28;20538;-56
2022/02/23 06:09:47;;;;;;;1.63;0.90;;;19.30;46.90;;;;;;5057297;28;20048;-58
2022/02/23 06:12:13;;;;;;;1.33;0.85;;;19.30;46.90;;;;;;5055807;28;20099;-57
2022/02/23 06:14:39;;;;;;;1.30;0.85;;;19.30;46.80;;;;;;5056316;28;20032;-54
2022/02/23 06:17:06;;;;;;;1.85;1.10;;;19.40;46.70;;;;;;5073291;28;20020;-55
2022/02/23 06:19:31;;;;;;;2.60;0.90;;;19.40;46.60;;;;;;5073202;28;20086;-54
2022/02/23 06:21:57;;;;;;;1.80;0.95;;;19.50;46.60;;;;;;5073566;28;20017;-55
2022/02/23 06:24:23;;;;;;;2.15;1.00;;;19.50;46.50;;;;;;5073159;28;20013;-57
2022/02/23 06:26:49;;;;;;;2.47;1.20;;;19.40;46.40;;;;;;5073117;28;20005;-56
2022/02/23 06:29:15;;;;;;;1.65;0.80;;;19.60;46.90;;;;;;5073128;28;20066;-54
2022/02/23 06:31:43;;;;;;;1.40;0.98;;;19.60;46.30;;;;;;5074244;28;20375;-54
2022/02/23 06:34:08;;;;;;;3.47;1.00;;;19.60;46.20;;;;;;5073528;28;20020;-54
2022/02/23 06:36:34;;;;;;;2.00;1.10;;;19.60;46.10;;;;;;5073875;28;20403;-57
2022/02/23 06:39:01;;;;;;;1.67;0.88;;;19.60;46.10;;;;;;5074379;28;20051;-54
2022/02/23 06:41:27;;;;;;;1.77;0.90;;;19.70;46.10;;;;;;5074221;28;20102;-55
2022/02/23 06:43:53;;;;;;;2.15;0.93;;;19.70;46.00;;;;;;5056093;28;20460;-55
2022/02/23 06:46:19;;;;;;;1.58;1.00;;;19.80;46.00;;;;;;5076910;28;20016;-53
2022/02/23 06:48:44;;;;;;;2.38;1.00;;;19.80;45.90;;;;;;5076689;28;20551;-56
2022/02/23 06:51:18;;;;;;;1.50;0.85;;;19.80;45.80;;;;;;5075395;28;20025;-54
2022/02/23 06:53:45;;;;;;;1.55;0.90;;;19.80;45.80;;;;;;5057086;28;20017;-53
2022/02/23 06:56:12;;;;;;;3.15;1.30;;;19.90;45.70;;;;;;5055189;28;20125;-56
2022/02/23 06:58:46;;;;;;;3.67;1.40;;;19.90;45.40;;;;;;5054681;28;20028;-55
2022/02/23 07:01:16;;;;;;;2.65;1.30;;;19.90;45.50;;;;;;5072182;28;20017;-54
2022/02/23 07:03:45;;;;;;;3.00;1.40;;;19.90;45.40;;;;;;5071790;28;20061;-54
2022/02/23 07:06:13;;;;;;;2.28;1.00;;;20.00;45.30;;;;;;5071821;28;20020;-54
2022/02/23 07:08:42;;;;;;;2.35;0.90;;;20.00;45.30;;;;;;5071657;28;20009;-53
2022/02/23 07:11:08;;;;;;;1.73;0.90;;;20.00;45.30;;;;;;5054290;28;20019;-55
2022/02/23 07:13:34;;;;;;;1.88;1.10;;;20.00;45.30;;;;;;5055136;28;20036;-54
2022/02/23 07:16:00;;;;;;;2.35;1.20;;;20.10;45.40;;;;;;5040220;28;20094;-58
2022/02/23 07:18:28;;;;;;;2.17;1.02;;;20.10;45.40;;;;;;5076130;28;20114;-55
2022/02/23 07:20:54;;;;;;;8.00;3.05;;;20.10;45.30;;;;;;5073931;28;20046;-56
2022/02/23 07:23:22;;;;;;;9.05;1.92;;;20.10;45.30;;;;;;5073319;28;20008;-53
2022/02/23 07:25:52;;;;;;;11.82;2.83;;;20.10;45.80;;;;;;5055800;28;20074;-52
2022/02/23 07:28:18;;;;;;;12.65;3.38;;;19.80;44.60;;;;;;5040469;28;20416;-54
2022/02/23 07:30:44;;;;;;;12.95;3.78;;;19.50;44.40;;;;;;5039732;28;20012;-55
2022/02/23 07:33:10;;;;;;;10.27;3.67;;;19.20;44.20;;;;;;5074408;28;20024;-55
2022/02/23 07:35:36;;;;;;;19.60;4.05;;;19.00;44.10;;;;;;5074394;28;20096;-53
2022/02/23 07:38:05;;;;;;;14.70;4.18;;;18.80;43.80;;;;;;5074372;28;20021;-54
2022/02/23 07:40:31;;;;;;;12.85;4.43;;;18.80;43.50;;;;;;5074589;28;20155;-56
2022/02/23 07:43:00;;;;;;;17.55;4.72;;;18.70;43.20;;;;;;5074316;28;20479;-58
2022/02/23 07:45:28;;;;;;;12.07;4.45;;;18.60;43.00;;;;;;5075143;28;20009;-50
2022/02/23 07:47:54;;;;;;;14.25;4.90;;;18.50;43.10;;;;;;5039547;28;20015;-53
2022/02/23 07:50:19;;;;;;;13.35;4.47;;;18.40;43.00;;;;;;5039547;28;20107;-52
2022/02/23 07:52:49;;;;;;;11.95;4.82;;;18.30;42.70;;;;;;5074317;28;20024;-52
2022/02/23 07:55:15;;;;;;;9.20;3.88;;;18.40;42.80;;;;;;5056641;28;20033;-51
2022/02/23 07:57:42;;;;;;;9.93;4.15;;;18.50;42.70;;;;;;5074122;28;20020;-54
2022/02/23 08:00:09;;;;;;;12.15;4.10;;;18.80;42.50;;;;;;5073664;28;20519;-53
2022/02/23 08:02:36;;;;;;;9.95;4.65;;;19.10;42.00;;;;;;5073693;28;20025;-53
2022/02/23 08:05:02;;;;;;;17.27;4.95;;;19.30;41.80;;;;;;5074261;28;20020;-54
2022/02/23 08:07:28;;;;;;;12.80;4.30;;;19.30;41.90;;;;;;5074478;28;20021;-53
2022/02/23 08:09:55;;;;;;;14.05;4.38;;;19.40;41.90;;;;;;5055681;28;20058;-59
2022/02/23 08:12:21;;;;;;;8.77;4.40;;;19.50;41.70;;;;;;5072766;28;20016;-51
2022/02/23 08:14:47;;;;;;;15.27;4.55;;;19.50;41.90;;;;;;5073669;28;20035;-52
2022/02/23 08:19:58;;;;;;;23.08;5.28;;;19.50;41.90;;;;;;5073853;28;20093;-53
2022/02/23 08:22:28;;;;;;;11.85;4.50;;;19.60;42.80;;;;;;5039853;28;20080;-54
2022/02/23 08:24:58;;;;;;;17.40;4.65;;;19.80;43.10;;;;;;5074376;28;20039;-55
2022/02/23 08:27:24;;;;;;;14.40;4.75;;;19.90;43.50;;;;;;5072590;28;20035;-56
2022/02/23 08:29:51;;;;;;;12.25;4.38;;;20.10;42.10;;;;;;5073839;28;20070;-56
2022/02/23 08:32:18;;;;;;;14.80;4.18;;;20.10;41.50;;;;;;5074466;28;20012;-54
2022/02/23 08:34:45;;;;;;;16.83;4.72;;;20.00;41.00;;;;;;5073572;28;20052;-55
2022/02/23 08:37:11;;;;;;;11.77;4.40;;;20.10;40.80;;;;;;5073918;28;20554;-56
2022/02/23 08:39:38;;;;;;;17.45;4.75;;;20.10;40.50;;;;;;5073495;28;20032;-55
2022/02/23 08:42:08;;;;;;;14.25;5.55;;;20.10;40.30;;;;;;5052724;28;20045;-54
2022/02/23 08:44:39;;;;;;;15.67;4.43;;;20.10;40.10;;;;;;5054412;28;20013;-56
2022/02/23 08:47:06;;;;;;;17.63;4.65;;;20.00;40.20;;;;;;5053494;28;20025;-54
2022/02/23 08:49:33;;;;;;;15.13;4.22;;;20.10;40.80;;;;;;5053065;28;20036;-55
2022/02/23 08:51:59;;;;;;;13.93;4.47;;;20.30;40.90;;;;;;5053612;28;20100;-54
2022/02/23 08:54:25;;;;;;;10.82;4.20;;;20.40;41.20;;;;;;5053092;28;20100;-54
2022/02/23 08:56:51;;;;;;;16.65;4.07;;;20.50;41.60;;;;;;5034352;28;20081;-54
2022/02/23 08:59:17;;;;;;;38.13;4.70;;;20.60;41.60;;;;;;5052720;28;20061;-54
2022/02/23 09:01:45;;;;;;;19.08;4.28;;;20.60;41.50;;;;;;5051203;28;20100;-54
2022/02/23 09:04:11;;;;;;;17.25;4.07;;;20.60;42.00;;;;;;5054957;28;20032;-54
2022/02/23 09:06:39;;;;;;;14.27;4.13;;;20.50;41.80;;;;;;5054552;28;20009;-54
2022/02/23 09:09:05;;;;;;;17.20;4.65;;;20.40;41.10;;;;;;5053278;28;20523;-55
2022/02/23 09:11:31;;;;;;;20.67;5.20;;;20.40;41.20;;;;;;5053455;28;20029;-55
2022/02/23 09:13:59;;;;;;;17.65;4.43;;;20.30;40.90;;;;;;5053180;28;20048;-55
2022/02/23 09:16:24;;;;;;;20.20;4.70;;;20.20;41.40;;;;;;5053045;28;20013;-53
2022/02/23 09:18:53;;;;;;;15.30;4.38;;;20.10;41.50;;;;;;5033761;28;20033;-58
2022/02/23 09:21:20;;;;;;;21.70;5.28;;;19.90;41.60;;;;;;5051962;28;20445;-51
2022/02/23 09:23:46;;;;;;;11.73;4.25;;;19.00;41.40;;;;;;5034965;28;20013;-53
2022/02/23 09:26:12;;;;;;;15.27;5.22;;;18.30;42.90;;;;;;5050749;28;20541;-53
2022/02/23 09:28:38;;;;;;;15.65;5.30;;;17.50;43.80;;;;;;5051490;28;20497;-54
2022/02/23 09:31:07;;;;;;;15.35;4.70;;;17.00;44.50;;;;;;5052875;28;20017;-49
2022/02/23 09:33:36;;;;;;;17.73;5.25;;;16.60;45.40;;;;;;5053090;28;20032;-48
2022/02/23 09:36:04;;;;;;;19.27;4.57;;;16.30;46.00;;;;;;5053109;28;20061;-52
2022/02/23 09:38:32;;;;;;;16.05;5.18;;;16.00;46.90;;;;;;5053247;28;20017;-51
2022/02/23 09:40:59;;;;;;;14.85;4.65;;;15.90;47.00;;;;;;5051551;28;20009;-55
2022/02/23 09:43:25;;;;;;;17.58;5.30;;;15.80;47.10;;;;;;5072071;28;20451;-53
2022/02/23 09:45:54;;;;;;;16.10;4.55;;;15.70;47.30;;;;;;5054295;28;20019;-55
2022/02/23 09:48:24;;;;;;;13.50;5.00;;;15.70;47.90;;;;;;5072414;28;20056;-58
2022/02/23 09:50:53;;;;;;;16.50;4.40;;;15.70;47.90;;;;;;5054435;28;20082;-55
2022/02/23 09:53:20;;;;;;;13.25;4.40;;;15.70;47.70;;;;;;5054846;28;20017;-56
2022/02/23 09:55:45;;;;;;;17.20;5.20;;;15.40;48.10;;;;;;5056466;28;20020;-57
2022/02/23 09:58:11;;;;;;;17.33;4.78;;;15.50;48.10;;;;;;5055959;28;20034;-57
2022/02/23 10:00:38;;;;;;;20.05;5.00;;;15.40;48.40;;;;;;5073937;28;20073;-58
2022/02/23 10:03:05;;;;;;;16.88;5.07;;;15.40;48.40;;;;;;5073417;28;20024;-57
2022/02/23 10:05:41;;;;;;;24.77;5.40;;;15.30;48.20;;;;;;5072873;28;20032;-57
2022/02/23 10:08:09;;;;;;;18.35;4.93;;;15.30;48.70;;;;;;5054685;28;20058;-57
2022/02/23 10:10:39;;;;;;;16.02;5.53;;;15.30;48.80;;;;;;5054590;28;20032;-55
2022/02/23 10:13:05;;;;;;;17.13;4.50;;;15.10;48.70;;;;;;5054422;28;20112;-54
2022/02/23 10:15:32;;;;;;;14.70;4.65;;;15.50;49.20;;;;;;5054643;28;20017;-53
2022/02/23 10:18:09;;;;;;;17.02;4.43;;;16.20;48.50;;;;;;5054744;28;20036;-51
2022/02/23 10:20:37;;;;;;;21.70;5.65;;;16.90;47.80;;;;;;5054587;28;20484;-54
2022/02/23 10:23:20;;;;;;;12.15;4.10;;;17.50;47.10;;;;;;5072725;28;20017;-56
2022/02/23 10:25:59;;;;;;;17.75;4.20;;;18.00;46.40;;;;;;5072071;28;20012;-56
2022/02/23 10:28:26;;;;;;;17.75;4.82;;;18.40;45.90;;;;;;5072313;28;20008;-54
2022/02/23 10:30:57;;;;;;;14.30;4.15;;;18.70;45.70;;;;;;5072530;28;20076;-54
2022/02/23 10:33:32;;;;;;;13.95;3.33;;;19.00;45.30;;;;;;5072140;28;20020;-53
2022/02/23 10:36:03;;;;;;;13.25;3.72;;;19.20;45.00;;;;;;5072523;28;20024;-54
2022/02/23 10:38:37;;;;;;;17.00;3.85;;;19.40;44.80;;;;;;5072301;28;20037;-53
2022/02/23 10:41:04;;;;;;;17.88;3.88;;;19.60;45.20;;;;;;5072602;28;20065;-54
2022/02/23 10:43:36;;;;;;;18.98;4.20;;;19.80;44.40;;;;;;5072973;28;20045;-50
2022/02/23 10:46:12;;;;;;;12.97;4.10;;;19.90;44.30;;;;;;5054041;28;20020;-54
2022/02/23 10:48:42;;;;;;;16.15;4.40;;;20.10;44.40;;;;;;5037354;28;20034;-53
2022/02/23 10:51:16;;;;;;;14.60;3.90;;;20.20;44.60;;;;;;5073919;28;20019;-53
2022/02/23 10:53:43;;;;;;;11.57;3.50;;;20.20;44.50;;;;;;5056874;28;20017;-54
2022/02/23 10:56:23;;;;;;;15.73;3.63;;;20.30;44.40;;;;;;5057155;28;20017;-56
2022/02/23 10:59:00;;;;;;;20.98;4.68;;;20.40;44.30;;;;;;5075927;28;20039;-54
2022/02/23 11:01:26;;;;;;;23.73;4.72;;;20.40;44.90;;;;;;5077863;28;20052;-52
2022/02/23 11:03:52;;;;;;;20.88;4.38;;;20.20;45.40;;;;;;5060874;28;20364;-55
2022/02/23 11:06:18;;;;;;;20.60;4.18;;;20.20;45.40;;;;;;5044014;28;20016;-56
2022/02/23 11:08:49;;;;;;;19.55;3.97;;;20.10;45.40;;;;;;5058594;28;20025;-56
2022/02/23 11:11:18;;;;;;;15.82;3.95;;;20.10;45.50;;;;;;5077016;28;20020;-58
2022/02/23 11:13:44;;;;;;;17.48;3.90;;;20.00;45.60;;;;;;5077821;28;20031;-57
2022/02/23 11:16:10;;;;;;;14.98;3.85;;;19.90;45.70;;;;;;5077619;28;20016;-54
2022/02/23 11:18:36;;;;;;;14.13;3.50;;;19.90;45.70;;;;;;5059448;28;20012;-54
2022/02/23 11:21:02;;;;;;;16.23;3.67;;;19.90;45.80;;;;;;5043410;28;20371;-57
2022/02/23 11:23:28;;;;;;;18.45;3.50;;;19.80;45.90;;;;;;5061217;28;20024;-56
2022/02/23 11:25:54;;;;;;;14.25;3.20;;;19.80;45.90;;;;;;5060903;28;20013;-57
2022/02/23 11:28:23;;;;;;;12.70;3.60;;;19.70;46.00;;;;;;5060277;28;20029;-57
2022/02/23 11:31:11;;;;;;;16.98;4.28;;;19.70;46.10;;;;;;5076105;28;20017;-58
2022/02/23 11:34:04;;;;;;;13.18;3.17;;;19.70;46.20;;;;;;5057974;28;20019;-57
2022/02/23 11:36:42;;;;;;;18.02;3.63;;;19.60;46.20;;;;;;5057949;28;20467;-57
2022/02/23 11:39:18;;;;;;;14.95;3.70;;;19.60;46.20;;;;;;5075591;28;20023;-58
2022/02/23 11:41:52;;;;;;;15.45;3.50;;;19.60;46.30;;;;;;5081251;28;20044;-59
2022/02/23 11:44:20;;;;;;;15.38;3.20;;;19.50;46.90;;;;;;5096105;28;20407;-58
2022/02/23 11:46:55;;;;;;;15.52;4.00;;;19.50;46.50;;;;;;5096255;28;20009;-58
2022/02/23 11:49:24;;;;;;;14.00;4.03;;;19.50;46.50;;;;;;5096356;28;20020;-56
2022/02/23 11:52:08;;;;;;;10.18;3.30;;;19.50;46.50;;;;;;5095593;28;20024;-57
2022/02/23 11:54:57;;;;;;;11.05;3.08;;;19.40;46.50;;;;;;5096183;28;20016;-57
2022/02/23 11:57:52;;;;;;;11.25;3.00;;;19.40;46.60;;;;;;5096266;28;20023;-55
2022/02/23 12:00:20;;;;;;;10.98;3.28;;;19.30;46.60;;;;;;5096274;28;20177;-55
2022/02/23 12:03:09;;;;;;;17.13;2.92;;;19.30;46.70;;;;;;5095675;28;20015;-54
2022/02/23 12:05:44;;;;;;;11.43;2.85;;;19.20;46.80;;;;;;5095707;28;20012;-56
2022/02/23 12:08:43;;;;;;;11.85;2.72;;;19.20;46.80;;;;;;5094022;28;20493;-55
2022/02/23 12:11:17;;;;;;;11.38;3.30;;;19.30;46.80;;;;;;5083809;28;20024;-57
2022/02/23 12:13:58;;;;;;;10.60;2.90;;;19.20;46.90;;;;;;5095127;28;20027;-56
2022/02/23 12:16:27;;;;;;;8.63;3.05;;;19.20;46.90;;;;;;5095347;28;20530;-55
2022/02/23 12:18:56;;;;;;;15.50;3.45;;;19.20;47.00;;;;;;5095187;28;20506;-55
2022/02/23 12:21:31;;;;;;;14.00;3.25;;;19.10;46.90;;;;;;5095306;28;20020;-55
2022/02/23 12:24:01;;;;;;;9.88;2.75;;;19.20;47.00;;;;;;5093597;28;20013;-57
2022/02/23 12:26:27;;;;;;;9.37;2.60;;;19.20;46.90;;;;;;5095386;28;20092;-55
2022/02/23 12:28:54;;;;;;;12.93;3.78;;;19.10;47.00;;;;;;5095307;28;20104;-55
2022/02/23 12:31:24;;;;;;;10.88;2.95;;;19.10;46.90;;;;;;5094985;28;20012;-56
2022/02/23 12:33:53;;;;;;;10.13;2.92;;;19.00;46.90;;;;;;5094999;28;20467;-57
2022/02/23 12:36:38;;;;;;;13.80;2.72;;;19.00;46.90;;;;;;5094847;28;20017;-56
2022/02/23 12:39:05;;;;;;;6.63;2.78;;;19.00;47.10;;;;;;5095546;28;20031;-56
2022/02/23 12:41:33;;;;;;;11.57;2.80;;;19.00;47.10;;;;;;5093802;28;20105;-55
2022/02/23 12:44:00;;;;;;;11.38;2.72;;;18.90;47.10;;;;;;5094871;28;20015;-56
2022/02/23 12:46:28;;;;;;;11.82;3.08;;;18.90;47.10;;;;;;5095042;28;20472;-55
2022/02/23 12:48:56;;;;;;;9.27;2.78;;;18.90;47.10;;;;;;5094795;28;20016;-54